sensor_id;sensor_type;location;lat;lon;timestamp;pressure;altitude;pressure_sealevel;temperature;humidity
14295;BME280;7231;59.370;18.016;2023-07-16T00:01:10;100782.69;;;18.18;63.37
14295;BME280;7231;59.370;18.016;2023-07-16T00:03:39;100825.00;;;18.42;63.57
14295;BME280;7231;59.370;18.016;2023-07-16T00:06:08;100817.97;;;18.34;63.83
14295;BME280;7231;59.370;18.016;2023-07-16T00:08:35;100811.75;;;18.36;64.15
14295;BME280;7231;59.370;18.016;2023-07-16T00:11:04;100810.88;;;18.37;64.20
14295;BME280;7231;59.370;18.016;2023-07-16T00:13:32;100809.09;;;18.38;64.34
14295;BME280;7231;59.370;18.016;2023-07-16T00:16:00;100799.38;;;18.37;64.52
14295;BME280;7231;59.370;18.016;2023-07-16T00:18:28;100808.22;;;18.37;64.62
14295;BME280;7231;59.370;18.016;2023-07-16T00:20:58;100813.53;;;18.34;64.98
14295;BME280;7231;59.370;18.016;2023-07-16T00:23:25;100807.34;;;18.34;65.17
14295;BME280;7231;59.370;18.016;2023-07-16T00:25:53;100791.41;;;18.35;65.25
14295;BME280;7231;59.370;18.016;2023-07-16T00:28:22;100793.22;;;18.30;65.59
14295;BME280;7231;59.370;18.016;2023-07-16T00:30:50;100792.31;;;18.31;65.77
14295;BME280;7231;59.370;18.016;2023-07-16T00:33:18;100781.69;;;18.34;65.79
14295;BME280;7231;59.370;18.016;2023-07-16T00:35:47;100771.91;;;18.41;66.29
14295;BME280;7231;59.370;18.016;2023-07-16T00:38:18;100776.31;;;18.46;66.57
14295;BME280;7231;59.370;18.016;2023-07-16T00:40:47;100774.53;;;18.50;66.68
14295;BME280;7231;59.370;18.016;2023-07-16T00:43:15;100750.66;;;18.45;66.69
14295;BME280;7231;59.370;18.016;2023-07-16T00:45:45;100759.44;;;18.57;66.98
14295;BME280;7231;59.370;18.016;2023-07-16T00:48:14;100755.88;;;18.59;66.89
14295;BME280;7231;59.370;18.016;2023-07-16T00:50:42;100753.25;;;18.62;67.12
14295;BME280;7231;59.370;18.016;2023-07-16T00:53:13;100761.22;;;18.64;66.99
14295;BME280;7231;59.370;18.016;2023-07-16T00:55:42;100734.69;;;18.55;67.27
14295;BME280;7231;59.370;18.016;2023-07-16T00:58:11;100741.69;;;18.68;67.12
14295;BME280;7231;59.370;18.016;2023-07-16T01:00:40;100747.00;;;18.69;67.33
14295;BME280;7231;59.370;18.016;2023-07-16T01:03:10;100745.22;;;18.71;67.25
14295;BME280;7231;59.370;18.016;2023-07-16T01:05:45;100754.06;;;18.73;67.50
14295;BME280;7231;59.370;18.016;2023-07-16T01:08:20;100731.03;;;18.75;67.47
14295;BME280;7231;59.370;18.016;2023-07-16T01:10:51;100734.56;;;18.77;67.31
14295;BME280;7231;59.370;18.016;2023-07-16T01:13:19;100714.28;;;18.66;67.13
14295;BME280;7231;59.370;18.016;2023-07-16T01:15:48;100722.13;;;18.79;67.22
14295;BME280;7231;59.370;18.016;2023-07-16T01:18:16;100714.16;;;18.81;67.16
14295;BME280;7231;59.370;18.016;2023-07-16T01:20:44;100719.47;;;18.81;66.94
14295;BME280;7231;59.370;18.016;2023-07-16T01:23:26;100699.97;;;18.82;67.16
14295;BME280;7231;59.370;18.016;2023-07-16T01:26:06;100690.25;;;18.83;66.87
14295;BME280;7231;59.370;18.016;2023-07-16T01:28:49;100687.56;;;18.84;66.73
14295;BME280;7231;59.370;18.016;2023-07-16T01:31:23;100688.47;;;18.83;66.48
14295;BME280;7231;59.370;18.016;2023-07-16T01:33:54;100707.94;;;18.82;66.51
14295;BME280;7231;59.370;18.016;2023-07-16T01:36:24;100704.41;;;18.83;66.25
14295;BME280;7231;59.370;18.016;2023-07-16T01:38:53;100705.28;;;18.85;66.31
14295;BME280;7231;59.370;18.016;2023-07-16T01:41:21;100699.09;;;18.81;66.37
14295;BME280;7231;59.370;18.016;2023-07-16T01:43:48;100700.84;;;18.86;66.50
14295;BME280;7231;59.370;18.016;2023-07-16T01:46:17;100716.78;;;18.87;66.35
14295;BME280;7231;59.370;18.016;2023-07-16T01:48:47;100705.28;;;18.84;66.54
14295;BME280;7231;59.370;18.016;2023-07-16T01:51:15;100724.72;;;18.92;66.60
14295;BME280;7231;59.370;18.016;2023-07-16T01:53:43;100707.03;;;18.88;66.58
14295;BME280;7231;59.370;18.016;2023-07-16T01:56:11;100698.16;;;18.90;66.65
14295;BME280;7231;59.370;18.016;2023-07-16T01:58:40;100706.94;;;18.98;66.48
14295;BME280;7231;59.370;18.016;2023-07-16T02:01:08;100703.34;;;19.02;66.46
14295;BME280;7231;59.370;18.016;2023-07-16T02:03:36;100708.66;;;19.05;66.40
14295;BME280;7231;59.370;18.016;2023-07-16T02:06:06;100704.19;;;19.07;66.46
14295;BME280;7231;59.370;18.016;2023-07-16T02:08:34;100710.38;;;19.09;66.35
14295;BME280;7231;59.370;18.016;2023-07-16T02:11:01;100719.22;;;19.11;66.35
14295;BME280;7231;59.370;18.016;2023-07-16T02:13:30;100713.88;;;19.14;66.48
14295;BME280;7231;59.370;18.016;2023-07-16T02:15:58;100711.22;;;19.16;66.31
14295;BME280;7231;59.370;18.016;2023-07-16T02:18:26;100712.97;;;19.17;66.26
14295;BME280;7231;59.370;18.016;2023-07-16T02:20:53;100704.97;;;19.19;66.19
14295;BME280;7231;59.370;18.016;2023-07-16T02:23:23;100704.97;;;19.22;66.30
14295;BME280;7231;59.370;18.016;2023-07-16T02:25:51;100689.88;;;19.24;66.16
14295;BME280;7231;59.370;18.016;2023-07-16T02:28:19;100694.28;;;19.25;66.15
14295;BME280;7231;59.370;18.016;2023-07-16T02:30:48;100694.28;;;19.26;66.17
14295;BME280;7231;59.370;18.016;2023-07-16T02:33:16;100683.63;;;19.28;66.24
14295;BME280;7231;59.370;18.016;2023-07-16T02:35:46;100646.56;;;19.14;66.19
14295;BME280;7231;59.370;18.016;2023-07-16T02:38:15;100673.81;;;19.33;66.17
14295;BME280;7231;59.370;18.016;2023-07-16T02:40:45;100610.38;;;19.01;66.36
14295;BME280;7231;59.370;18.016;2023-07-16T02:43:13;100670.31;;;19.31;66.63
14295;BME280;7231;59.370;18.016;2023-07-16T02:45:41;100659.69;;;19.29;66.80
14295;BME280;7231;59.370;18.016;2023-07-16T02:48:09;100666.78;;;19.29;67.00
14295;BME280;7231;59.370;18.016;2023-07-16T02:50:37;100654.38;;;19.28;67.32
14295;BME280;7231;59.370;18.016;2023-07-16T02:53:06;100660.59;;;19.28;67.36
14295;BME280;7231;59.370;18.016;2023-07-16T02:55:35;100665.91;;;19.27;67.46
14295;BME280;7231;59.370;18.016;2023-07-16T02:58:04;100664.09;;;19.32;67.41
14295;BME280;7231;59.370;18.016;2023-07-16T03:00:33;100571.59;;;18.81;67.32
14295;BME280;7231;59.370;18.016;2023-07-16T03:03:01;100672.06;;;19.33;67.45
14295;BME280;7231;59.370;18.016;2023-07-16T03:05:30;100674.69;;;19.35;67.24
14295;BME280;7231;59.370;18.016;2023-07-16T03:07:58;100659.69;;;19.28;67.86
14295;BME280;7231;59.370;18.016;2023-07-16T03:10:26;100666.88;;;19.20;68.10
14295;BME280;7231;59.370;18.016;2023-07-16T03:12:54;100661.66;;;19.10;68.62
14295;BME280;7231;59.370;18.016;2023-07-16T03:15:23;100635.22;;;18.94;69.47
14295;BME280;7231;59.370;18.016;2023-07-16T03:17:51;100658.13;;;19.07;69.71
14295;BME280;7231;59.370;18.016;2023-07-16T03:20:19;100646.59;;;19.09;69.95
14295;BME280;7231;59.370;18.016;2023-07-16T03:22:48;100651.88;;;19.12;70.03
14295;BME280;7231;59.370;18.016;2023-07-16T03:25:16;100628.91;;;19.05;70.20
14295;BME280;7231;59.370;18.016;2023-07-16T03:27:44;100652.75;;;19.13;70.20
14295;BME280;7231;59.370;18.016;2023-07-16T03:30:12;100650.13;;;19.11;70.55
14295;BME280;7231;59.370;18.016;2023-07-16T03:32:41;100652.00;;;19.00;70.86
14295;BME280;7231;59.370;18.016;2023-07-16T03:35:18;100652.97;;;18.90;71.02
14295;BME280;7231;59.370;18.016;2023-07-16T03:37:49;100646.00;;;18.80;71.66
14295;BME280;7231;59.370;18.016;2023-07-16T03:40:23;100638.16;;;18.65;72.66
14295;BME280;7231;59.370;18.016;2023-07-16T03:42:51;100625.84;;;18.48;73.31
14295;BME280;7231;59.370;18.016;2023-07-16T03:45:19;100624.06;;;18.50;73.98
14295;BME280;7231;59.370;18.016;2023-07-16T03:47:49;100618.75;;;18.50;74.76
14295;BME280;7231;59.370;18.016;2023-07-16T03:50:17;100630.25;;;18.51;74.94
14295;BME280;7231;59.370;18.016;2023-07-16T03:52:45;100627.63;;;18.48;75.27
14295;BME280;7231;59.370;18.016;2023-07-16T03:55:13;100626.78;;;18.43;75.64
14295;BME280;7231;59.370;18.016;2023-07-16T03:57:42;100603.91;;;18.25;76.28
14295;BME280;7231;59.370;18.016;2023-07-16T04:00:10;100598.66;;;18.19;77.50
14295;BME280;7231;59.370;18.016;2023-07-16T04:02:38;100584.56;;;18.12;78.26
14295;BME280;7231;59.370;18.016;2023-07-16T04:05:09;100576.69;;;18.02;80.02
14295;BME280;7231;59.370;18.016;2023-07-16T04:07:37;100567.88;;;17.94;80.85
14295;BME280;7231;59.370;18.016;2023-07-16T04:10:06;100552.91;;;17.87;81.93
14295;BME280;7231;59.370;18.016;2023-07-16T04:12:34;100551.16;;;17.79;82.72
14295;BME280;7231;59.370;18.016;2023-07-16T04:15:07;100546.75;;;17.81;84.38
14295;BME280;7231;59.370;18.016;2023-07-16T04:17:35;100528.19;;;17.80;84.53
14295;BME280;7231;59.370;18.016;2023-07-16T04:20:04;100535.25;;;17.81;85.32
14295;BME280;7231;59.370;18.016;2023-07-16T04:22:35;100523.75;;;17.82;86.06
14295;BME280;7231;59.370;18.016;2023-07-16T04:25:03;100512.25;;;17.81;86.43
14295;BME280;7231;59.370;18.016;2023-07-16T04:27:31;100499.91;;;17.79;86.94
14295;BME280;7231;59.370;18.016;2023-07-16T04:29:59;100494.63;;;17.77;87.42
14295;BME280;7231;59.370;18.016;2023-07-16T04:32:27;100481.34;;;17.76;88.20
14295;BME280;7231;59.370;18.016;2023-07-16T04:34:55;100488.41;;;17.78;88.64
14295;BME280;7231;59.370;18.016;2023-07-16T04:37:23;100475.16;;;17.78;89.14
14295;BME280;7231;59.370;18.016;2023-07-16T04:39:53;100464.56;;;17.77;89.95
14295;BME280;7231;59.370;18.016;2023-07-16T04:42:21;100476.88;;;17.86;90.04
14295;BME280;7231;59.370;18.016;2023-07-16T04:44:49;100468.03;;;17.85;90.80
14295;BME280;7231;59.370;18.016;2023-07-16T04:47:17;100465.34;;;17.90;91.17
14295;BME280;7231;59.370;18.016;2023-07-16T04:49:45;100468.84;;;17.95;91.01
14295;BME280;7231;59.370;18.016;2023-07-16T04:52:13;100458.22;;;17.96;91.22
14295;BME280;7231;59.370;18.016;2023-07-16T04:54:41;100440.50;;;18.00;91.14
14295;BME280;7231;59.370;18.016;2023-07-16T04:57:10;100431.59;;;18.07;91.38
14295;BME280;7231;59.370;18.016;2023-07-16T04:59:38;100428.91;;;18.11;91.51
14295;BME280;7231;59.370;18.016;2023-07-16T05:02:06;100406.88;;;18.02;91.85
14295;BME280;7231;59.370;18.016;2023-07-16T05:04:35;100427.06;;;18.20;92.11
14295;BME280;7231;59.370;18.016;2023-07-16T05:07:03;100433.16;;;18.25;92.29
14295;BME280;7231;59.370;18.016;2023-07-16T05:09:32;100425.13;;;18.31;92.47
14295;BME280;7231;59.370;18.016;2023-07-16T05:12:00;100412.72;;;18.34;91.83
14295;BME280;7231;59.370;18.016;2023-07-16T05:14:30;100395.88;;;18.38;91.72
14295;BME280;7231;59.370;18.016;2023-07-16T05:16:58;100391.38;;;18.43;91.66
14295;BME280;7231;59.370;18.016;2023-07-16T05:19:26;100383.38;;;18.46;91.38
14295;BME280;7231;59.370;18.016;2023-07-16T05:21:54;100369.16;;;18.52;91.13
14295;BME280;7231;59.370;18.016;2023-07-16T05:24:22;100352.28;;;18.61;91.42
14295;BME280;7231;59.370;18.016;2023-07-16T05:26:50;100359.25;;;18.69;90.99
14295;BME280;7231;59.370;18.016;2023-07-16T05:29:21;100333.66;;;18.62;90.58
14295;BME280;7231;59.370;18.016;2023-07-16T05:31:50;100318.53;;;18.69;90.00
14295;BME280;7231;59.370;18.016;2023-07-16T05:34:18;100341.31;;;18.85;89.55
14295;BME280;7231;59.370;18.016;2023-07-16T05:36:46;100334.09;;;18.95;88.84
14295;BME280;7231;59.370;18.016;2023-07-16T05:39:14;100319.88;;;18.99;88.43
14295;BME280;7231;59.370;18.016;2023-07-16T05:41:43;100322.50;;;19.02;87.92
14295;BME280;7231;59.370;18.016;2023-07-16T05:44:11;100315.34;;;19.05;87.43
14295;BME280;7231;59.370;18.016;2023-07-16T05:46:39;100314.41;;;19.09;86.97
14295;BME280;7231;59.370;18.016;2023-07-16T05:49:08;100316.06;;;19.17;86.84
14295;BME280;7231;59.370;18.016;2023-07-16T05:51:36;100310.69;;;19.21;86.53
14295;BME280;7231;59.370;18.016;2023-07-16T05:54:04;100325.47;;;19.39;86.06
14295;BME280;7231;59.370;18.016;2023-07-16T05:56:33;100317.25;;;19.56;85.08
14295;BME280;7231;59.370;18.016;2023-07-16T05:59:01;100320.34;;;19.81;84.16
14295;BME280;7231;59.370;18.016;2023-07-16T06:01:29;100320.78;;;20.05;83.10
14295;BME280;7231;59.370;18.016;2023-07-16T06:03:57;100316.00;;;20.23;81.86
14295;BME280;7231;59.370;18.016;2023-07-16T06:06:27;100315.69;;;20.39;80.67
14295;BME280;7231;59.370;18.016;2023-07-16T06:08:55;100302.13;;;20.52;79.56
14295;BME280;7231;59.370;18.016;2023-07-16T06:11:23;100301.94;;;20.61;78.52
14295;BME280;7231;59.370;18.016;2023-07-16T06:13:53;100298.19;;;20.69;77.38
14295;BME280;7231;59.370;18.016;2023-07-16T06:16:22;100307.00;;;20.73;77.12
14295;BME280;7231;59.370;18.016;2023-07-16T06:18:50;100304.31;;;20.73;76.59
14295;BME280;7231;59.370;18.016;2023-07-16T06:21:19;100288.22;;;20.79;76.16
14295;BME280;7231;59.370;18.016;2023-07-16T06:23:48;100283.50;;;20.89;75.42
14295;BME280;7231;59.370;18.016;2023-07-16T06:26:16;100280.66;;;20.96;74.59
14295;BME280;7231;59.370;18.016;2023-07-16T06:28:45;100284.13;;;21.00;74.25
14295;BME280;7231;59.370;18.016;2023-07-16T06:31:15;100280.53;;;21.02;74.08
14295;BME280;7231;59.370;18.016;2023-07-16T06:33:44;100277.03;;;21.00;73.91
14295;BME280;7231;59.370;18.016;2023-07-16T06:36:13;100277.91;;;21.01;73.54
14295;BME280;7231;59.370;18.016;2023-07-16T06:38:42;100271.66;;;21.02;73.35
14295;BME280;7231;59.370;18.016;2023-07-16T06:41:11;100259.13;;;21.05;73.19
14295;BME280;7231;59.370;18.016;2023-07-16T06:43:39;100265.25;;;21.09;73.19
14295;BME280;7231;59.370;18.016;2023-07-16T06:46:07;100240.91;;;20.87;73.16
14295;BME280;7231;59.370;18.016;2023-07-16T06:48:35;100258.53;;;20.93;72.39
14295;BME280;7231;59.370;18.016;2023-07-16T06:51:03;100260.31;;;20.92;72.23
14295;BME280;7231;59.370;18.016;2023-07-16T06:53:31;100271.84;;;20.94;71.98
14295;BME280;7231;59.370;18.016;2023-07-16T06:55:59;100257.69;;;20.91;71.76
14295;BME280;7231;59.370;18.016;2023-07-16T06:58:33;100259.34;;;20.96;71.55
14295;BME280;7231;59.370;18.016;2023-07-16T07:01:01;100270.66;;;21.06;71.16
14295;BME280;7231;59.370;18.016;2023-07-16T07:03:29;100259.09;;;21.07;71.02
14295;BME280;7231;59.370;18.016;2023-07-16T07:05:57;100273.09;;;21.15;70.34
14295;BME280;7231;59.370;18.016;2023-07-16T07:08:25;100256.41;;;21.07;70.06
14295;BME280;7231;59.370;18.016;2023-07-16T07:10:53;100257.19;;;21.12;69.85
14295;BME280;7231;59.370;18.016;2023-07-16T07:13:21;100272.19;;;21.16;70.02
14295;BME280;7231;59.370;18.016;2023-07-16T07:15:50;100259.13;;;21.05;69.94
14295;BME280;7231;59.370;18.016;2023-07-16T07:18:18;100284.88;;;21.06;69.96
14295;BME280;7231;59.370;18.016;2023-07-16T07:20:46;100262.88;;;20.97;70.39
14295;BME280;7231;59.370;18.016;2023-07-16T07:23:16;100249.72;;;20.91;70.38
14295;BME280;7231;59.370;18.016;2023-07-16T07:25:48;100251.56;;;20.87;70.83
14295;BME280;7231;59.370;18.016;2023-07-16T07:28:17;100261.50;;;20.81;70.99
14295;BME280;7231;59.370;18.016;2023-07-16T07:30:45;100267.00;;;20.74;71.25
14295;BME280;7231;59.370;18.016;2023-07-16T07:33:15;100264.50;;;20.67;71.60
14295;BME280;7231;59.370;18.016;2023-07-16T07:35:43;100290.34;;;20.63;71.87
14295;BME280;7231;59.370;18.016;2023-07-16T07:38:11;100306.38;;;20.60;72.26
14295;BME280;7231;59.370;18.016;2023-07-16T07:40:42;100289.03;;;20.41;72.75
14295;BME280;7231;59.370;18.016;2023-07-16T07:43:10;100298.66;;;20.48;72.77
14295;BME280;7231;59.370;18.016;2023-07-16T07:45:38;100330.44;;;20.56;73.17
14295;BME280;7231;59.370;18.016;2023-07-16T07:48:06;100307.41;;;20.53;73.36
14295;BME280;7231;59.370;18.016;2023-07-16T07:50:36;100282.56;;;20.53;73.51
14295;BME280;7231;59.370;18.016;2023-07-16T07:53:04;100289.69;;;20.52;73.73
14295;BME280;7231;59.370;18.016;2023-07-16T07:55:33;100271.91;;;20.53;73.75
14295;BME280;7231;59.370;18.016;2023-07-16T07:58:02;100275.47;;;20.53;73.74
14295;BME280;7231;59.370;18.016;2023-07-16T08:00:30;100261.19;;;20.56;73.96
14295;BME280;7231;59.370;18.016;2023-07-16T08:02:58;100264.63;;;20.61;74.12
14295;BME280;7231;59.370;18.016;2023-07-16T08:05:26;100257.34;;;20.69;74.02
14295;BME280;7231;59.370;18.016;2023-07-16T08:07:55;100256.41;;;20.71;73.84
14295;BME280;7231;59.370;18.016;2023-07-16T08:10:23;100247.31;;;20.80;73.97
14295;BME280;7231;59.370;18.016;2023-07-16T08:12:51;100258.66;;;20.88;73.67
14295;BME280;7231;59.370;18.016;2023-07-16T08:15:19;100244.66;;;20.80;73.61
14295;BME280;7231;59.370;18.016;2023-07-16T08:17:47;100286.22;;;20.87;73.71
14295;BME280;7231;59.370;18.016;2023-07-16T08:20:16;100294.13;;;20.90;73.71
14295;BME280;7231;59.370;18.016;2023-07-16T08:22:44;100303.09;;;20.86;73.81
14295;BME280;7231;59.370;18.016;2023-07-16T08:25:13;100307.47;;;20.90;74.13
14295;BME280;7231;59.370;18.016;2023-07-16T08:27:41;100301.25;;;20.90;74.31
14295;BME280;7231;59.370;18.016;2023-07-16T08:30:09;100296.81;;;20.90;73.94
14295;BME280;7231;59.370;18.016;2023-07-16T08:32:37;100288.00;;;20.87;74.15
14295;BME280;7231;59.370;18.016;2023-07-16T08:35:06;100274.78;;;20.82;74.52
14295;BME280;7231;59.370;18.016;2023-07-16T08:37:38;100284.50;;;20.85;74.67
14295;BME280;7231;59.370;18.016;2023-07-16T08:40:07;100274.00;;;20.79;74.82
14295;BME280;7231;59.370;18.016;2023-07-16T08:42:38;100258.28;;;20.66;75.89
14295;BME280;7231;59.370;18.016;2023-07-16T08:45:10;100263.16;;;20.48;76.67
14295;BME280;7231;59.370;18.016;2023-07-16T08:47:38;100286.34;;;20.42;77.52
14295;BME280;7231;59.370;18.016;2023-07-16T08:50:07;100307.81;;;20.33;78.31
14295;BME280;7231;59.370;18.016;2023-07-16T08:52:37;100297.41;;;20.21;79.17
14295;BME280;7231;59.370;18.016;2023-07-16T08:55:06;100305.25;;;20.27;79.56
14295;BME280;7231;59.370;18.016;2023-07-16T08:57:34;100315.19;;;20.19;79.74
14295;BME280;7231;59.370;18.016;2023-07-16T09:00:06;100286.16;;;20.07;80.83
14295;BME280;7231;59.370;18.016;2023-07-16T09:02:34;100281.94;;;19.95;81.52
14295;BME280;7231;59.370;18.016;2023-07-16T09:05:04;100274.25;;;19.80;82.64
14295;BME280;7231;59.370;18.016;2023-07-16T09:07:32;100273.44;;;19.76;84.12
14295;BME280;7231;59.370;18.016;2023-07-16T09:10:01;100281.56;;;19.67;85.35
14295;BME280;7231;59.370;18.016;2023-07-16T09:12:29;100297.69;;;19.58;86.44
14295;BME280;7231;59.370;18.016;2023-07-16T09:14:57;100288.88;;;19.55;86.97
14295;BME280;7231;59.370;18.016;2023-07-16T09:17:27;100298.78;;;19.45;88.43
14295;BME280;7231;59.370;18.016;2023-07-16T09:19:55;100290.16;;;19.31;89.63
14295;BME280;7231;59.370;18.016;2023-07-16T09:22:26;100303.63;;;19.19;90.53
14295;BME280;7231;59.370;18.016;2023-07-16T09:24:54;100313.56;;;19.07;91.90
14295;BME280;7231;59.370;18.016;2023-07-16T09:27:28;100292.59;;;18.88;93.66
14295;BME280;7231;59.370;18.016;2023-07-16T09:29:56;100319.16;;;18.88;94.64
14295;BME280;7231;59.370;18.016;2023-07-16T09:32:34;100314.84;;;18.79;97.46
14295;BME280;7231;59.370;18.016;2023-07-16T09:35:06;100322.03;;;18.71;98.93
14295;BME280;7231;59.370;18.016;2023-07-16T09:37:36;100310.59;;;18.66;99.92
14295;BME280;7231;59.370;18.016;2023-07-16T09:40:06;100310.69;;;18.57;100.00
14295;BME280;7231;59.370;18.016;2023-07-16T09:42:38;100308.97;;;18.54;100.00
14295;BME280;7231;59.370;18.016;2023-07-16T09:45:07;100301.91;;;18.52;100.00
14295;BME280;7231;59.370;18.016;2023-07-16T09:47:37;100300.19;;;18.47;100.00
14295;BME280;7231;59.370;18.016;2023-07-16T09:50:06;100343.63;;;18.42;100.00
14295;BME280;7231;59.370;18.016;2023-07-16T09:52:34;100387.06;;;18.33;100.00
14295;BME280;7231;59.370;18.016;2023-07-16T09:55:04;100413.63;;;18.33;100.00
14295;BME280;7231;59.370;18.016;2023-07-16T09:57:35;100428.75;;;18.24;100.00
14295;BME280;7231;59.370;18.016;2023-07-16T10:00:06;100417.38;;;18.14;100.00
14295;BME280;7231;59.370;18.016;2023-07-16T10:02:36;100412.19;;;18.00;100.00
14295;BME280;7231;59.370;18.016;2023-07-16T10:05:14;100426.44;;;17.92;100.00
14295;BME280;7231;59.370;18.016;2023-07-16T10:07:43;100458.31;;;17.86;100.00
14295;BME280;7231;59.370;18.016;2023-07-16T10:10:17;100430.94;;;17.79;100.00
14295;BME280;7231;59.370;18.016;2023-07-16T10:12:54;100411.47;;;17.81;100.00
14295;BME280;7231;59.370;18.016;2023-07-16T10:15:27;100400.97;;;17.68;100.00
14295;BME280;7231;59.370;18.016;2023-07-16T10:17:56;100397.47;;;17.66;100.00
14295;BME280;7231;59.370;18.016;2023-07-16T10:20:29;100408.03;;;17.70;100.00
14295;BME280;7231;59.370;18.016;2023-07-16T10:22:57;100417.78;;;17.67;100.00
14295;BME280;7231;59.370;18.016;2023-07-16T10:25:26;100396.56;;;17.65;100.00
14295;BME280;7231;59.370;18.016;2023-07-16T10:27:56;100386.84;;;17.63;100.00
14295;BME280;7231;59.370;18.016;2023-07-16T10:30:24;100378.91;;;17.66;100.00
14295;BME280;7231;59.370;18.016;2023-07-16T10:32:52;100370.03;;;17.68;100.00
14295;BME280;7231;59.370;18.016;2023-07-16T10:35:22;100347.06;;;17.70;100.00
14295;BME280;7231;59.370;18.016;2023-07-16T10:37:51;100355.00;;;17.72;100.00
14295;BME280;7231;59.370;18.016;2023-07-16T10:40:19;100355.84;;;17.74;100.00
14295;BME280;7231;59.370;18.016;2023-07-16T10:42:47;100343.44;;;17.79;100.00
14295;BME280;7231;59.370;18.016;2023-07-16T10:45:15;100338.13;;;17.80;100.00
14295;BME280;7231;59.370;18.016;2023-07-16T10:47:51;100332.78;;;17.83;100.00
14295;BME280;7231;59.370;18.016;2023-07-16T10:50:21;100288.75;;;17.63;100.00
14295;BME280;7231;59.370;18.016;2023-07-16T10:52:51;100334.41;;;17.97;100.00
14295;BME280;7231;59.370;18.016;2023-07-16T10:55:20;100355.63;;;18.00;100.00
14295;BME280;7231;59.370;18.016;2023-07-16T10:57:49;100378.56;;;18.05;100.00
14295;BME280;7231;59.370;18.016;2023-07-16T11:00:18;100382.06;;;18.09;100.00
14295;BME280;7231;59.370;18.016;2023-07-16T11:02:48;100412.91;;;18.17;100.00
14295;BME280;7231;59.370;18.016;2023-07-16T11:05:17;100428.84;;;18.17;100.00
14295;BME280;7231;59.370;18.016;2023-07-16T11:07:48;100409.34;;;18.20;100.00
14295;BME280;7231;59.370;18.016;2023-07-16T11:10:22;100412.88;;;18.21;100.00
14295;BME280;7231;59.370;18.016;2023-07-16T11:12:51;100408.47;;;18.20;100.00
14295;BME280;7231;59.370;18.016;2023-07-16T11:15:30;100418.16;;;18.22;100.00
14295;BME280;7231;59.370;18.016;2023-07-16T11:18:00;100392.47;;;18.26;100.00
14295;BME280;7231;59.370;18.016;2023-07-16T11:20:29;100384.44;;;18.30;100.00
14295;BME280;7231;59.370;18.016;2023-07-16T11:22:59;100399.44;;;18.34;100.00
14295;BME280;7231;59.370;18.016;2023-07-16T11:25:28;100391.44;;;18.39;100.00
14295;BME280;7231;59.370;18.016;2023-07-16T11:27:56;100373.63;;;18.48;100.00
14295;BME280;7231;59.370;18.016;2023-07-16T11:30:25;100354.94;;;18.58;100.00
14295;BME280;7231;59.370;18.016;2023-07-16T11:32:54;100400.97;;;18.57;100.00
14295;BME280;7231;59.370;18.016;2023-07-16T11:35:25;100425.72;;;18.62;100.00
14295;BME280;7231;59.370;18.016;2023-07-16T11:37:54;100449.41;;;18.81;100.00
14295;BME280;7231;59.370;18.016;2023-07-16T11:40:24;100459.81;;;18.98;100.00
14295;BME280;7231;59.370;18.016;2023-07-16T11:42:52;100453.50;;;19.08;100.00
14295;BME280;7231;59.370;18.016;2023-07-16T11:45:21;100442.63;;;19.27;100.00
14295;BME280;7231;59.370;18.016;2023-07-16T11:47:52;100436.00;;;19.57;100.00
14295;BME280;7231;59.370;18.016;2023-07-16T11:50:20;100446.44;;;19.70;100.00
14295;BME280;7231;59.370;18.016;2023-07-16T11:52:52;100438.66;;;19.58;100.00
14295;BME280;7231;59.370;18.016;2023-07-16T11:55:21;100446.69;;;19.54;100.00
14295;BME280;7231;59.370;18.016;2023-07-16T11:57:51;100433.00;;;19.80;100.00
14295;BME280;7231;59.370;18.016;2023-07-16T12:00:19;100438.03;;;20.49;100.00
14295;BME280;7231;59.370;18.016;2023-07-16T12:02:47;100444.56;;;20.77;100.00
14295;BME280;7231;59.370;18.016;2023-07-16T12:05:19;100427.16;;;20.59;100.00
14295;BME280;7231;59.370;18.016;2023-07-16T12:07:59;100439.44;;;20.66;100.00
14295;BME280;7231;59.370;18.016;2023-07-16T12:10:27;100415.31;;;21.14;100.00
14295;BME280;7231;59.370;18.016;2023-07-16T12:12:56;100435.66;;;21.95;100.00
14295;BME280;7231;59.370;18.016;2023-07-16T12:15:24;100448.28;;;22.26;99.86
14295;BME280;7231;59.370;18.016;2023-07-16T12:17:52;100444.72;;;21.90;97.31
14295;BME280;7231;59.370;18.016;2023-07-16T12:20:20;100447.09;;;22.02;98.37
14295;BME280;7231;59.370;18.016;2023-07-16T12:22:48;100448.44;;;21.83;95.83
14295;BME280;7231;59.370;18.016;2023-07-16T12:25:18;100446.28;;;21.61;94.94
14295;BME280;7231;59.370;18.016;2023-07-16T12:27:46;100431.75;;;21.75;95.45
14295;BME280;7231;59.370;18.016;2023-07-16T12:30:16;100446.56;;;22.56;92.01
14295;BME280;7231;59.370;18.016;2023-07-16T12:35:12;100457.44;;;22.82;85.17
14295;BME280;7231;59.370;18.016;2023-07-16T12:37:40;100460.44;;;22.70;84.02
14295;BME280;7231;59.370;18.016;2023-07-16T12:40:09;100458.63;;;22.71;82.30
14295;BME280;7231;59.370;18.016;2023-07-16T12:42:37;100458.94;;;22.92;81.80
14295;BME280;7231;59.370;18.016;2023-07-16T12:45:06;100452.94;;;22.84;80.48
14295;BME280;7231;59.370;18.016;2023-07-16T12:47:35;100449.25;;;22.88;79.52
14295;BME280;7231;59.370;18.016;2023-07-16T12:50:06;100450.81;;;23.54;78.87
14295;BME280;7231;59.370;18.016;2023-07-16T12:52:34;100462.72;;;24.00;76.46
14295;BME280;7231;59.370;18.016;2023-07-16T12:55:02;100427.56;;;24.11;74.23
14295;BME280;7231;59.370;18.016;2023-07-16T12:57:31;100447.50;;;24.02;71.41
14295;BME280;7231;59.370;18.016;2023-07-16T12:59:59;100449.66;;;24.44;75.13